Nearby METAR Reports

 

PAWD - Seward, Alaska, USA
Distance from station: WNW 16mi, 27km
Updated: 06/25/2018 4:53am
Overcast
Overcast
 Wind from calm
Wind: Calm
Temperature: 48°F , 9°C
Dew Point: 48°F , 9°C
Humidity: 100%
Barometer: 29.90 inHg , 1012.5 hPa
Clouds: Overcast
Visibility: 10 miles , 16 km
Cloud details: Overcast 6000 ft
2018/06/25 12:53 PAWD 251253Z AUTO 00000KT 10SM OVC060 09/09 A2990 RMK AO2 SLP123 T00890089 TSNO
PATO - Portage Glacier, Alaska, USA
Distance from station: N 54mi, 87km
Updated: 06/25/2018 4:53am
Overcast
Overcast
 Wind from calm
Wind: Calm
Temperature: 45°F , 7°C
Dew Point: 41°F , 5°C
Humidity: 87%
Barometer: 29.89 inHg , 1012.2 hPa
Clouds: Overcast
Visibility: 10 miles , 16 km
Cloud details: Overcast 7500 ft
2018/06/25 12:53 PATO 251253Z AUTO 00000KT 10SM OVC075 07/05 A2989 RMK AO2 SLP123 T00720050 TSNO
 
PASX - Soldotna, Alaska, USA
Distance from station: WNW 77mi, 124km
Updated: 06/25/2018 4:56am
Overcast
Overcast
 Wind from calm
Wind: Calm
Temperature: 48°F , 9°C
Dew Point: 46°F , 8°C
Humidity: 94%
Barometer: 29.90 inHg , 1012.5 hPa
Clouds: Overcast
Visibility: 10 miles , 16 km
Cloud details: Few Clouds 4500 ft
Overcast 6000 ft
2018/06/25 12:56 PASX 251256Z AUTO 00000KT 10SM FEW045 OVC060 09/08 A2990 RMK AO2 RAE54 SLP136 P0000 T00940083
PAEN - Kenai, Alaska, USA
Distance from station: WNW 86mi, 139km
Updated: 06/25/2018 4:53am
Overcast
Overcast
 Wind from calm
Wind: Calm
Temperature: 52°F , 11°C
Dew Point: 46°F , 8°C
Humidity: 82%
Barometer: 29.88 inHg , 1011.9 hPa
Clouds: Overcast
Visibility: 10 miles , 16 km
Cloud details: Few Clouds 6000 ft
Overcast 8000 ft
2018/06/25 12:53 PAEN 251253Z AUTO 00000KT 10SM FEW060 OVC080 11/08 A2988 RMK AO2 SLP120 T01060083 TSNO $
 
PANC - Anchorage Intl, Alaska, USA
Distance from station: NNW 88mi, 141km
Updated: 06/25/2018 4:53am
Mostly cloudy
Mostly cloudy
 Wind from calm
Wind: Calm
Temperature: 52°F , 11°C
Dew Point: 48°F , 9°C
Humidity: 88%
Barometer: 29.88 inHg , 1011.9 hPa
Clouds: Mostly cloudy
Visibility: 10 miles , 16 km
Cloud details: Mostly cloudy 4700 ft
Mostly cloudy 5500 ft
Mostly cloudy 7500 ft
2018/06/25 12:53 PANC 251253Z 00000KT 10SM BKN047 BKN055 BKN075 11/09 A2988 RMK AO2 SLP119 T01060089
PALH - Anchorage/Lake H, Alaska, USA
Distance from station: NNW 88mi, 142km
Updated: 06/25/2018 4:53am
Overcast
Overcast
 Wind from SW
Wind: SW 3 mph , 6 km/h
Temperature: 54°F , 12°C
Dew Point: 48°F , 9°C
Humidity: 82%
Barometer: 29.89 inHg , 1012.2 hPa
Clouds: Overcast
Visibility: 10 miles , 16 km
Cloud details: Overcast 4800 ft
2018/06/25 12:53 PALH 251253Z 22003KT 10SM OVC048 12/09 A2989 RMK AO2 SLP122 T01220089
 
PAMR - Anchorage/Merril, Alaska, USA
Distance from station: NNW 89mi, 143km
Updated: 06/25/2018 4:53am
Overcast
Overcast
 Wind from calm
Wind: Calm
Temperature: 54°F , 12°C
Dew Point: 46°F , 8°C
Humidity: 77%
Barometer: 29.88 inHg , 1011.9 hPa
Clouds: Overcast
Visibility: 10 miles , 16 km
Cloud details: Mostly cloudy 4700 ft
Overcast 8000 ft
2018/06/25 12:53 PAMR 251253Z 00000KT 10SM BKN047 OVC080 12/08 A2988 RMK AO2 SLP119 T01220083
PAFR - Fort Richardson, Alaska, USA
Distance from station: NNW 90mi, 145km
Updated: 06/25/2018 4:58am
Overcast
Overcast
 Wind from calm
Wind: Calm
Temperature: 48°F , 9°C
Dew Point: 45°F , 7°C
Humidity: 87%
Barometer: 29.86 inHg , 1011.2 hPa
Clouds: Overcast
Visibility: 10 miles , 16 km
Cloud details: Mostly cloudy 4200 ft
Overcast 5000 ft
2018/06/25 12:58 PAFR 251258Z AUTO 00000KT 10SM BKN042 OVC050 09/07 A2986 RMK AO2 SLP118 T00900073
 
PAHO - Homer, Alaska, USA
Distance from station: WSW 90mi, 146km
Updated: 06/25/2018 4:53am
Overcast
Overcast
 Wind from calm
Wind: Calm
Temperature: 52°F , 11°C
Dew Point: 50°F , 10°C
Humidity: 94%
Barometer: 29.89 inHg , 1012.2 hPa
Clouds: Overcast
Visibility: 10 miles , 16 km
Cloud details: Overcast 5500 ft
2018/06/25 12:53 PAHO 251253Z AUTO 00000KT 10SM OVC055 11/10 A2989 RMK AO2 SLP123 T01060100 TSNO
PAED - Elmendorf Afb, Alaska, USA
Distance from station: NNW 91mi, 146km
Updated: 06/25/2018 4:56am
Overcast
Overcast
 Wind from calm
Wind: Calm
Temperature: 52°F , 11°C
Dew Point: 46°F , 8°C
Humidity: 82%
Barometer: 29.88 inHg , 1011.9 hPa
Clouds: Overcast
Visibility: 10 miles , 16 km
Cloud details: Few Clouds 4500 ft
Few Clouds 5500 ft
Overcast 7000 ft
2018/06/25 12:56 PAED 251256Z AUTO 00000KT 10SM FEW045 FEW055 OVC070 11/08 A2988 RMK AO2 SLP114 T01140084
 
PABV - Birchwood, Alaska, USA
Distance from station: N 99mi, 160km
Updated: 06/25/2018 4:56am
Overcast
Overcast
 Wind from calm
Wind: Calm
Temperature: 52°F , 11°C
Dew Point: 46°F , 8°C
Humidity: 82%
Barometer: 29.90 inHg , 1012.5 hPa
Clouds: Overcast
Visibility: 10 miles , 16 km
Cloud details: Mostly cloudy 4700 ft
Overcast 7500 ft
2018/06/25 12:56 PABV 251256Z AUTO 00000KT 10SM BKN047 OVC075 11/08 A2990 RMK AO2 SLP132 T01110078 $
PASO - Seldovia, Alaska, USA
Distance from station: WSW 101mi, 163km
Updated: 06/25/2018 4:53am
Light rain, Overcast
Light rain, Overcast
 Wind from calm
Wind: Calm
Temperature: 50°F , 10°C
Dew Point: 46°F , 8°C
Humidity: 88%
Barometer: 29.89 inHg , 1012.2 hPa
Summary: Light rain
Clouds: Overcast
Visibility: 10 miles , 16 km
Cloud details: Mostly cloudy 5000 ft
Overcast 6000 ft
2018/06/25 12:53 PASO 251253Z AUTO 00000KT 10SM -RA BKN050 OVC060 10/08 A2989 RMK AO2 RAB52 SLP121 P0000 T01000078 TSNO
 
PAMD - Middleton Island, Alaska, USA
Distance from station: ESE 102mi, 164km
Updated: 06/25/2018 4:51am
Clear
Clear
 Wind from SW
Wind: SW 7 mph , 11 km/h
Temperature: 46°F , 8°C
Wind Chill: 42°F , 6°C
Dew Point: 45°F , 7°C
Humidity: 93%
Barometer: 29.93 inHg , 1013.5 hPa
Clouds: Clear
Visibility: 10 miles , 16 km
2018/06/25 12:51 PAMD 251251Z AUTO 23006KT 10SM CLR 08/07 A2993 RMK AO2 SLP125 T00830067
PAAQ - Palmer, Alaska, USA
Distance from station: N 111mi, 178km
Updated: 06/25/2018 4:53am
Overcast
Overcast
 Wind from calm
Wind: Calm
Temperature: 52°F , 11°C
Dew Point: 48°F , 9°C
Humidity: 88%
Barometer: 29.88 inHg , 1011.9 hPa
Clouds: Overcast
Visibility: 10 miles , 16 km
Cloud details: Few Clouds 3800 ft
Overcast 4800 ft
2018/06/25 12:53 PAAQ 251253Z AUTO 00000KT 10SM FEW038 OVC048 11/09 A2988 RMK AO2 SLP120 T01060089 TSNO
 
PAVD - Valdez, Alaska, USA
Distance from station: NE 122mi, 196km
Updated: 06/25/2018 4:56am
Overcast
Overcast
 Wind from ENE
Wind: ENE 3 mph , 6 km/h
Temperature: 46°F , 8°C
Dew Point: 45°F , 7°C
Humidity: 93%
Barometer: 29.90 inHg , 1012.5 hPa
Clouds: Overcast
Visibility: 10 miles , 16 km
Cloud details: Overcast 3400 ft
2018/06/25 12:56 PAVD 251256Z AUTO 07003KT 10SM OVC034 08/07 A2990 RMK AO2 RAE14 SLP150 P0000 T00780067
PACV - Cordova, Alaska, USA
Distance from station: ENE 125mi, 201km
Updated: 06/25/2018 4:53am
Mostly cloudy
Mostly cloudy
 Wind from calm
Wind: Calm
Temperature: 46°F , 8°C
Dew Point: 46°F , 8°C
Humidity: 100%
Barometer: 29.91 inHg , 1012.9 hPa
Clouds: Mostly cloudy
Visibility: 10 miles , 16 km
Cloud details: Partly cloudy 300 ft
Mostly cloudy 4100 ft
Mostly cloudy 25000 ft
2018/06/25 12:53 PACV 251253Z 00000KT 10SM SCT003 BKN041 BKN250 08/08 A2991 RMK AO2 SLP128 T00780078
 
PAZK - Eureka, Alaska, USA
Distance from station: NNE 147mi, 237km
Updated: 06/25/2018 5:48am
Light rain, Mist, Overcast
Light rain, Mist, Overcast
 Wind from SW
Wind: SW 10 mph , 17 km/h, Gust: 17 mph , 28 km/h
Temperature: 41°F , 5°C
Wind Chill: 35°F , 2°C
Dew Point: 41°F , 5°C
Humidity: 100%
Barometer: 29.83 inHg , 1010.2 hPa
Summary: Light rain, Mist
Clouds: Overcast
Visibility: 1 1/2 miles , 2.4 km
Cloud details: Overcast 100 ft
2018/06/25 13:48 PAZK 251348Z AUTO 22009G15KT 1 1/2SM -RA BR OVC001 05/05 A2983 RMK AO2 VIS 3/4V5 P0001
PATK - Talkeetna, Alaska, USA
Distance from station: NNW 163mi, 262km
Updated: 06/25/2018 5:43am
Overcast
Overcast
 Wind from calm
Wind: Calm
Temperature: 54°F , 12°C
Dew Point: 45°F , 7°C
Humidity: 72%
Barometer: 29.87 inHg , 1011.5 hPa
Clouds: Overcast
Visibility: 10 miles , 16 km
Cloud details: Mostly cloudy 2800 ft
Overcast 5000 ft
2018/06/25 13:43 PATK 251343Z AUTO 00000KT 10SM BKN028 OVC050 12/07 A2987 RMK AO2 T01170067 TSNO
 
PALJ - Port Alsworth, Alaska, USA
Distance from station: W 183mi, 295km
Updated: 06/21/2018 4:50pm
NOT Current
Light rain, Overcast
Light rain, Overcast
 Wind from SW
Wind: SW 5 mph , 7 km/h
Temperature: 54°F , 12°C
Dew Point: 52°F , 11°C
Humidity: 94%
Barometer: 29.78 inHg , 1008.5 hPa
Summary: Light rain
Clouds: Overcast
Visibility: 7 miles , 11 km
Cloud details: Mostly cloudy 1200 ft
Overcast 3000 ft
2018/06/22 00:50 PALJ 220050Z 23004KT 7SM -RA BKN012 OVC030 12/11 A2978 RMK 401440089 EST PASS CLOSED NO SPECI
PAGK - Gulkana, Alaska, USA
Distance from station: NE 190mi, 306km
Updated: 06/25/2018 4:53am
Overcast
Overcast
 Wind from calm
Wind: Calm
Temperature: 48°F , 9°C
Dew Point: 48°F , 9°C
Humidity: 100%
Barometer: 29.82 inHg , 1009.8 hPa
Clouds: Overcast
Visibility: 10 miles , 16 km
Cloud details: Overcast 9000 ft
2018/06/25 12:53 PAGK 251253Z AUTO 00000KT 10SM OVC090 09/09 A2982 RMK AO2 SLP100 T00890089 TSNO
 
KLVK - Livermore, California, USA
Distance from station: NNE 31mi, 51km
Updated: 06/25/2018 4:53am
Overcast
Overcast
 Wind from W
Wind: W 14 mph , 22 km/h
Temperature: 59°F , 15°C
Dew Point: 54°F , 12°C
Humidity: 82%
Barometer: 29.92 inHg , 1013.2 hPa
Clouds: Overcast
Visibility: 10 miles , 16 km
Cloud details: Overcast 1600 ft
2018/06/25 12:53 KLVK 251253Z AUTO 28012KT 10SM OVC016 15/12 A2992 RMK AO2 SLP130 T01500122

USA Weather Finder






Flag Counter